Time;durP1;ratioP1;P1;durP2;ratioP2;P2;SDS_P1;SDS_P2;PMS_P1;PMS_P2;Temp;Humidity;BMP_temperature;BMP_pressure;BME280_temperature;BME280_humidity;BME280_pressure;Samples;Min_cycle;Max_cycle;Signal;HPM_P1;HPM_P2
2022/09/09 00:00:15;;;;;;;1.13;1.03;;;;;;;21.77;61.49;99108.97;5089841;28;20211;-64
2022/09/09 00:02:46;;;;;;;1.47;1.30;;;;;;;21.70;61.46;99126.31;5090109;28;20220;-58
2022/09/09 00:05:22;;;;;;;1.30;1.13;;;;;;;21.73;61.88;99122.53;5089388;28;20204;-63
2022/09/09 00:07:52;;;;;;;1.37;1.23;;;;;;;21.65;61.56;99128.66;5089687;28;20717;-64
2022/09/09 00:10:28;;;;;;;1.63;1.50;;;;;;;21.65;62.06;99129.47;5089580;28;20200;-58
2022/09/09 00:13:01;;;;;;;1.63;1.33;;;;;;;21.62;61.92;99126.41;5089755;28;20591;-63
2022/09/09 00:15:35;;;;;;;1.87;1.33;;;;;;;21.49;62.58;99127.03;5090270;28;20562;-58
2022/09/09 00:18:14;;;;;;;1.27;1.17;;;;;;;21.42;62.32;99119.16;5090310;28;20230;-58
2022/09/09 00:20:50;;;;;;;1.33;1.23;;;;;;;21.39;61.54;99129.91;5089635;28;20295;-63
2022/09/09 00:23:24;;;;;;;1.40;1.30;;;;;;;21.39;61.70;99123.91;5089358;28;20598;-63
2022/09/09 00:25:59;;;;;;;1.93;1.30;;;;;;;21.46;61.04;99130.78;5089672;28;20193;-58
2022/09/09 00:28:29;;;;;;;1.30;1.20;;;;;;;21.46;62.76;99130.78;5089975;28;20607;-63
2022/09/09 00:30:58;;;;;;;1.70;1.30;;;;;;;21.41;62.92;99133.16;5089580;28;20196;-58
2022/09/09 00:33:27;;;;;;;1.37;1.20;;;;;;;21.38;63.34;99132.69;5089253;28;20747;-58
2022/09/09 00:35:58;;;;;;;1.57;1.47;;;;;;;21.34;63.53;99132.22;5089260;28;20210;-63
2022/09/09 00:38:29;;;;;;;1.77;1.67;;;;;;;21.27;63.80;99136.53;5089881;28;20226;-63
2022/09/09 00:41:04;;;;;;;1.60;1.50;;;;;;;21.16;64.60;99123.97;5089454;28;20212;-63
2022/09/09 00:43:32;;;;;;;1.73;1.23;;;;;;;21.02;64.51;99122.94;5089301;28;20229;-63
2022/09/09 00:46:22;;;;;;;1.53;1.30;;;;;;;21.06;64.98;99118.19;5089281;28;20199;-58
2022/09/09 00:48:59;;;;;;;1.50;1.37;;;;;;;21.07;64.27;99119.84;5089468;28;20687;-64
2022/09/09 00:51:40;;;;;;;1.60;1.50;;;;;;;21.01;65.11;99116.16;5089361;28;20390;-57
2022/09/09 00:54:24;;;;;;;2.37;1.60;;;;;;;21.00;63.07;99104.13;5089286;28;20242;-64
2022/09/09 00:57:03;;;;;;;2.03;1.50;;;;;;;21.01;62.94;99100.53;5089053;28;20201;-58
2022/09/09 00:59:40;;;;;;;1.33;1.23;;;;;;;21.04;63.42;99100.19;5089217;28;20618;-64
2022/09/09 01:02:17;;;;;;;1.57;1.47;;;;;;;21.24;62.46;99105.69;5090094;28;20206;-58
2022/09/09 01:04:44;;;;;;;1.63;1.30;;;;;;;21.30;61.53;99094.56;5093247;28;20200;-63
2022/09/09 01:07:18;;;;;;;1.97;1.50;;;;;;;21.50;60.31;99088.81;5092688;28;20219;-58
2022/09/09 01:09:56;;;;;;;2.17;1.50;;;;;;;21.57;59.76;99092.31;5093465;28;20650;-59
2022/09/09 01:12:43;;;;;;;1.40;1.30;;;;;;;21.52;59.93;99081.66;5092726;28;20228;-58
2022/09/09 01:15:12;;;;;;;1.47;1.37;;;;;;;21.61;60.23;99085.75;5093103;28;20260;-58
2022/09/09 01:17:51;;;;;;;1.50;1.20;;;;;;;21.62;59.46;99082.97;5092570;28;20229;-63
2022/09/09 01:20:21;;;;;;;1.40;1.30;;;;;;;21.66;59.83;99086.81;5092733;28;20203;-58
2022/09/09 01:23:05;;;;;;;1.83;1.27;;;;;;;21.68;59.48;99091.84;5092989;28;20221;-63
2022/09/09 01:26:05;;;;;;;1.50;1.40;;;;;;;21.65;59.04;99092.22;5092523;28;20192;-58
2022/09/09 01:28:36;;;;;;;1.30;1.10;;;;;;;21.69;58.89;99083.06;5088627;28;20230;-63
2022/09/09 01:31:05;;;;;;;1.60;1.47;;;;;;;21.74;58.85;99085.91;5092461;28;20187;-63
2022/09/09 01:33:32;;;;;;;1.33;1.20;;;;;;;21.76;60.07;99088.31;5092880;28;20214;-58
2022/09/09 01:36:06;;;;;;;1.67;1.30;;;;;;;21.68;59.83;99086.66;5092184;28;20204;-63
2022/09/09 01:38:34;;;;;;;1.30;1.20;;;;;;;21.60;60.10;99091.97;5092439;28;20277;-62
2022/09/09 01:41:01;;;;;;;2.10;1.27;;;;;;;21.47;61.10;99085.59;5092604;28;20688;-58
2022/09/09 01:43:30;;;;;;;1.80;1.43;;;;;;;21.40;60.88;99089.09;5092380;28;20229;-57
2022/09/09 01:46:01;;;;;;;1.30;0.90;;;;;;;21.38;61.59;99085.88;5091874;28;20216;-63
2022/09/09 01:48:29;;;;;;;1.43;1.33;;;;;;;21.16;61.77;99085.75;5092585;28;20220;-63
2022/09/09 01:50:56;;;;;;;2.17;1.50;;;;;;;21.09;62.10;99081.44;5092092;28;20203;-63
2022/09/09 01:53:24;;;;;;;1.33;1.23;;;;;;;21.18;61.73;99090.78;5092548;28;20219;-63
2022/09/09 01:56:03;;;;;;;1.50;1.30;;;;;;;21.14;61.01;99086.91;5091983;28;20249;-63
2022/09/09 01:58:40;;;;;;;1.07;1.00;;;;;;;21.17;60.79;99084.75;5092514;28;20617;-63
2022/09/09 02:01:17;;;;;;;1.70;1.30;;;;;;;21.28;60.40;99086.13;5092092;28;20224;-57
2022/09/09 02:03:48;;;;;;;1.33;1.10;;;;;;;21.25;60.80;99081.28;5093203;28;20495;-58
2022/09/09 02:06:26;;;;;;;1.60;1.27;;;;;;;21.18;61.79;99081.19;5091668;28;20201;-64
2022/09/09 02:08:56;;;;;;;1.70;1.50;;;;;;;21.13;62.82;99082.72;5091708;28;20676;-57
2022/09/09 02:11:25;;;;;;;1.30;1.20;;;;;;;20.86;62.44;99084.94;5092611;28;20233;-63
2022/09/09 02:13:56;;;;;;;1.87;1.27;;;;;;;20.55;63.95;99090.22;5091393;28;20224;-63
2022/09/09 02:16:29;;;;;;;1.77;1.30;;;;;;;20.66;63.61;99086.41;5092088;28;20209;-58
2022/09/09 02:19:01;;;;;;;1.60;1.30;;;;;;;20.75;64.50;99088.75;5091918;28;20612;-63
2022/09/09 02:21:31;;;;;;;1.13;1.03;;;;;;;20.68;63.56;99089.63;5091881;28;20199;-63
2022/09/09 02:24:04;;;;;;;1.50;1.40;;;;;;;20.62;64.02;99090.34;5092018;28;20238;-57
2022/09/09 02:26:34;;;;;;;1.30;1.17;;;;;;;20.46;63.96;99086.88;5092781;28;20200;-58
2022/09/09 02:29:03;;;;;;;1.30;1.20;;;;;;;20.35;64.66;99082.88;5091804;28;20217;-63
2022/09/09 02:31:35;;;;;;;1.20;1.10;;;;;;;20.27;64.50;99080.34;5091681;28;20207;-63
2022/09/09 02:34:04;;;;;;;1.60;1.47;;;;;;;20.29;64.42;99085.38;5091713;28;20241;-63
2022/09/09 02:36:34;;;;;;;1.87;1.27;;;;;;;20.29;64.35;99080.19;5091419;28;20226;-61
2022/09/09 02:39:02;;;;;;;2.00;1.50;;;;;;;20.20;65.67;99076.03;5091391;28;20222;-58
2022/09/09 02:41:33;;;;;;;0.97;0.90;;;;;;;20.15;66.32;99078.31;5091111;28;20675;-57
2022/09/09 02:44:00;;;;;;;1.83;1.27;;;;;;;20.27;65.92;99087.31;5091271;28;20726;-63
2022/09/09 02:46:46;;;;;;;1.20;1.10;;;;;;;20.31;65.70;99078.22;5090962;28;20693;-58
2022/09/09 02:49:24;;;;;;;1.47;1.20;;;;;;;20.29;65.84;99077.59;5090815;28;20225;-63
2022/09/09 02:51:59;;;;;;;1.63;1.13;;;;;;;20.14;64.92;99080.13;5091266;28;20305;-58
2022/09/09 02:54:30;;;;;;;1.30;1.20;;;;;;;20.20;64.98;99081.22;5091207;28;20330;-64
2022/09/09 02:57:04;;;;;;;1.43;1.30;;;;;;;20.16;65.17;99082.53;5090732;28;20203;-58
2022/09/09 02:59:31;;;;;;;1.60;1.20;;;;;;;20.22;65.03;99079.28;5091656;28;20238;-63
2022/09/09 03:02:00;;;;;;;1.53;1.10;;;;;;;20.17;65.14;99081.56;5091426;28;20681;-58
2022/09/09 03:04:27;;;;;;;1.17;1.07;;;;;;;20.04;65.71;99072.56;5090831;28;20319;-63
2022/09/09 03:06:55;;;;;;;1.70;1.43;;;;;;;20.03;65.72;99081.31;5090341;28;20202;-62
2022/09/09 03:09:21;;;;;;;1.73;1.40;;;;;;;20.11;65.27;99076.06;5090384;28;20216;-57
2022/09/09 03:11:49;;;;;;;1.43;1.20;;;;;;;20.16;65.59;99074.75;5090650;28;20197;-58
2022/09/09 03:14:16;;;;;;;1.50;1.30;;;;;;;20.14;65.75;99069.72;5090597;28;20241;-58
2022/09/09 03:16:43;;;;;;;1.37;1.20;;;;;;;19.97;65.65;99074.22;5090987;28;20200;-58
2022/09/09 03:19:11;;;;;;;1.93;1.30;;;;;;;20.03;66.31;99076.13;5090614;28;20285;-63
2022/09/09 03:21:38;;;;;;;1.50;1.17;;;;;;;20.11;64.18;99068.28;5090257;28;20581;-63
2022/09/09 03:24:06;;;;;;;1.47;1.37;;;;;;;20.13;63.68;99066.34;5090359;28;20225;-58
2022/09/09 03:26:33;;;;;;;1.73;1.27;;;;;;;20.31;63.04;99068.63;5090062;28;20200;-58
2022/09/09 03:29:01;;;;;;;1.40;1.17;;;;;;;20.38;62.49;99068.75;5090090;28;20220;-63
2022/09/09 03:31:29;;;;;;;1.37;1.20;;;;;;;20.44;62.10;99068.03;5090226;28;20196;-63
2022/09/09 03:33:57;;;;;;;1.57;1.30;;;;;;;20.41;63.53;99073.59;5090182;28;20224;-57
2022/09/09 03:36:27;;;;;;;1.30;1.07;;;;;;;20.44;63.34;99075.03;5090076;28;20662;-63
2022/09/09 03:38:55;;;;;;;1.20;1.07;;;;;;;20.47;62.51;99072.88;5090106;28;20228;-58
2022/09/09 03:41:23;;;;;;;1.37;1.27;;;;;;;20.54;61.53;99079.03;5089737;28;20205;-63
2022/09/09 03:43:51;;;;;;;1.40;1.10;;;;;;;20.62;62.22;99074.75;5089993;28;20234;-57
2022/09/09 03:46:18;;;;;;;1.30;1.20;;;;;;;20.65;61.55;99084.78;5090422;28;20640;-57
2022/09/09 03:48:45;;;;;;;1.43;1.30;;;;;;;20.64;61.28;99088.38;5090114;28;20228;-63
2022/09/09 03:51:12;;;;;;;1.50;1.40;;;;;;;20.69;61.55;99088.66;5090554;28;20226;-63
2022/09/09 03:53:40;;;;;;;1.53;1.30;;;;;;;20.70;61.23;99092.88;5090308;28;20713;-63
2022/09/09 03:56:08;;;;;;;1.40;1.30;;;;;;;20.72;61.51;99090.91;5089705;28;20232;-57
2022/09/09 03:58:36;;;;;;;1.40;1.30;;;;;;;20.78;60.96;99092.81;5089845;28;20216;-63
2022/09/09 04:01:05;;;;;;;1.30;1.20;;;;;;;20.83;61.13;99093.09;5090236;28;20394;-63
2022/09/09 04:03:33;;;;;;;1.60;1.10;;;;;;;20.83;61.10;99087.06;5089652;28;20612;-60
2022/09/09 04:06:01;;;;;;;1.57;1.47;;;;;;;20.82;60.93;99091.44;5090017;28;20205;-63
2022/09/09 04:08:30;;;;;;;1.57;1.17;;;;;;;20.88;60.81;99093.34;5089590;28;20285;-63
2022/09/09 04:10:58;;;;;;;1.47;1.37;;;;;;;20.83;61.50;99087.88;5089379;28;20238;-57
2022/09/09 04:13:26;;;;;;;2.57;1.40;;;;;;;20.87;61.63;99099.53;5089791;28;20223;-63
2022/09/09 04:15:54;;;;;;;1.93;1.30;;;;;;;20.88;62.54;99092.53;5089585;28;20252;-63
2022/09/09 04:18:21;;;;;;;1.87;1.30;;;;;;;20.92;60.87;99092.03;5089752;28;20228;-57
2022/09/09 04:20:48;;;;;;;2.00;1.40;;;;;;;20.94;60.72;99089.22;5089404;28;20211;-63
2022/09/09 04:23:15;;;;;;;1.73;1.27;;;;;;;21.01;60.18;99088.34;5089860;28;20229;-63
2022/09/09 04:25:46;;;;;;;1.63;1.17;;;;;;;21.15;59.97;99093.75;5089515;28;20201;-63
2022/09/09 04:28:15;;;;;;;1.43;1.30;;;;;;;21.26;60.45;99088.09;5089722;28;20221;-63
2022/09/09 04:30:42;;;;;;;1.47;1.27;;;;;;;21.31;59.16;99085.75;5089822;28;20202;-58
2022/09/09 04:33:09;;;;;;;1.53;1.27;;;;;;;21.41;58.79;99085.50;5090029;28;20229;-63
2022/09/09 04:35:36;;;;;;;2.20;1.40;;;;;;;21.44;61.00;99078.16;5090074;28;20239;-63
2022/09/09 04:38:04;;;;;;;1.20;1.10;;;;;;;21.44;58.88;99085.97;5093463;28;20223;-59
2022/09/09 04:40:32;;;;;;;1.43;1.27;;;;;;;21.50;59.54;99089.66;5093923;28;20721;-58
2022/09/09 04:42:59;;;;;;;1.40;1.20;;;;;;;21.55;60.09;99094.28;5093342;28;20699;-57
2022/09/09 04:45:28;;;;;;;2.07;1.53;;;;;;;21.50;59.58;99089.66;5091810;28;20200;-63
2022/09/09 04:47:55;;;;;;;1.47;1.17;;;;;;;21.60;60.66;99094.56;5093341;28;20222;-63
2022/09/09 04:50:22;;;;;;;2.40;1.27;;;;;;;21.68;59.00;99091.84;5093179;28;20381;-63
2022/09/09 04:52:49;;;;;;;1.63;1.30;;;;;;;21.75;59.08;99097.94;5092867;28;20220;-63
2022/09/09 04:55:15;;;;;;;1.60;1.50;;;;;;;21.84;60.53;99096.84;5092925;28;20230;-63
2022/09/09 04:57:42;;;;;;;1.20;1.10;;;;;;;21.79;58.85;99099.19;5093074;28;20675;-64
2022/09/09 05:00:11;;;;;;;1.37;1.27;;;;;;;21.89;57.77;99098.91;5077100;28;20217;-57
2022/09/09 05:02:40;;;;;;;1.40;1.30;;;;;;;21.98;58.70;99097.00;5072768;28;20298;-57
2022/09/09 05:05:07;;;;;;;1.40;1.30;;;;;;;21.99;59.70;99102.03;5072747;28;20703;-63
2022/09/09 05:07:34;;;;;;;1.97;1.20;;;;;;;22.02;59.12;99099.06;5072518;28;20231;-63
2022/09/09 05:10:03;;;;;;;1.83;1.27;;;;;;;22.17;60.48;99087.78;5072220;28;20476;-63
2022/09/09 05:12:30;;;;;;;1.67;1.37;;;;;;;22.30;59.72;99091.34;5072566;28;20372;-64
2022/09/09 05:14:56;;;;;;;1.20;1.10;;;;;;;22.46;59.56;99098.09;5072203;28;20631;-65
2022/09/09 05:17:24;;;;;;;1.57;1.40;;;;;;;22.61;59.52;99100.63;5075050;28;20209;-65
2022/09/09 05:19:52;;;;;;;1.37;1.20;;;;;;;22.71;58.27;99090.66;5092626;28;20597;-64
2022/09/09 05:22:21;;;;;;;1.20;1.10;;;;;;;22.72;56.75;99089.69;5092771;28;20198;-58
2022/09/09 05:24:50;;;;;;;1.52;1.30;;;;;;;22.85;56.84;99088.16;5092384;28;20255;-64
2022/09/09 05:27:18;;;;;;;1.30;1.20;;;;;;;23.03;56.87;99078.09;5092066;28;20246;-58
2022/09/09 05:29:44;;;;;;;1.25;1.13;;;;;;;23.18;58.20;99083.97;5092280;28;20566;-56
2022/09/09 05:32:11;;;;;;;1.73;1.42;;;;;;;23.35;57.39;99086.28;5092053;28;20264;-57
2022/09/09 05:34:39;;;;;;;1.30;1.20;;;;;;;23.63;56.64;99081.78;5092322;28;20624;-58
2022/09/09 05:37:07;;;;;;;1.75;1.40;;;;;;;23.88;56.14;99084.72;5081244;28;20217;-57
2022/09/09 05:39:36;;;;;;;1.30;1.17;;;;;;;24.03;55.42;99091.56;5073054;28;20219;-64
2022/09/09 05:42:04;;;;;;;1.40;1.30;;;;;;;24.09;53.43;99096.81;5071538;28;20313;-65
2022/09/09 05:44:32;;;;;;;1.55;1.40;;;;;;;24.27;55.19;99087.63;5072621;28;20229;-58
2022/09/09 05:46:58;;;;;;;1.73;1.35;;;;;;;24.38;54.71;99087.03;5071525;28;20748;-64
2022/09/09 05:49:25;;;;;;;1.70;1.50;;;;;;;24.52;53.54;99090.44;5071012;28;20218;-64
2022/09/09 05:51:52;;;;;;;1.50;1.40;;;;;;;24.63;53.38;99098.50;5071455;28;20651;-58
2022/09/09 05:54:21;;;;;;;1.90;1.63;;;;;;;24.79;54.12;99099.13;5071474;28;20229;-64
2022/09/09 05:56:49;;;;;;;1.40;1.20;;;;;;;24.92;52.54;99101.69;5070840;28;20230;-65
2022/09/09 05:59:16;;;;;;;1.75;1.20;;;;;;;24.98;52.67;99111.34;5071510;28;20219;-64
2022/09/09 06:01:45;;;;;;;1.13;1.02;;;;;;;24.97;51.32;99114.19;5071904;28;20704;-64
2022/09/09 06:04:12;;;;;;;1.77;1.40;;;;;;;25.00;51.60;99109.34;5071352;28;20218;-59
2022/09/09 06:06:39;;;;;;;1.60;1.30;;;;;;;25.13;52.79;99107.69;5070914;28;20246;-58
2022/09/09 06:09:09;;;;;;;2.15;1.52;;;;;;;25.24;49.97;99104.50;5071580;28;20252;-58
2022/09/09 06:11:39;;;;;;;1.77;1.38;;;;;;;25.30;51.52;99103.66;5080365;28;20198;-64
2022/09/09 06:14:06;;;;;;;1.63;1.40;;;;;;;25.47;52.57;99107.44;5091242;28;20746;-58
2022/09/09 06:16:34;;;;;;;1.70;1.30;;;;;;;25.73;50.56;99108.34;5084330;28;20231;-65
2022/09/09 06:19:03;;;;;;;1.30;1.20;;;;;;;25.76;50.54;99115.78;5088309;28;20226;-60
2022/09/09 06:21:32;;;;;;;1.70;1.50;;;;;;;25.77;48.86;99114.75;5091219;28;20668;-64
2022/09/09 06:23:59;;;;;;;1.42;1.25;;;;;;;25.76;50.17;99107.91;5091389;28;20236;-58
2022/09/09 06:26:27;;;;;;;1.63;1.52;;;;;;;26.14;51.85;99105.31;5091709;28;20213;-64
2022/09/09 06:28:57;;;;;;;1.67;1.40;;;;;;;26.18;47.65;99113.59;5090994;28;20218;-64
2022/09/09 06:31:30;;;;;;;1.40;1.30;;;;;;;26.16;47.74;99121.66;5090873;28;20220;-63
2022/09/09 06:33:57;;;;;;;1.50;1.40;;;;;;;26.33;47.48;99119.31;5091305;28;20257;-65
2022/09/09 06:36:26;;;;;;;2.38;1.60;;;;;;;26.59;48.35;99107.06;5090600;28;20230;-64
2022/09/09 06:38:54;;;;;;;2.25;1.52;;;;;;;26.82;46.55;99112.50;5091175;28;20269;-58
2022/09/09 06:41:22;;;;;;;1.40;1.30;;;;;;;26.85;45.96;99119.94;5090666;28;20606;-58
2022/09/09 06:43:49;;;;;;;2.03;1.55;;;;;;;27.12;47.82;99122.31;5090179;28;20217;-64
2022/09/09 06:46:19;;;;;;;2.08;1.65;;;;;;;27.33;48.37;99117.69;5090409;28;20198;-58
2022/09/09 06:48:47;;;;;;;1.63;1.52;;;;;;;27.56;45.62;99112.56;5090690;28;20296;-65
2022/09/09 06:51:16;;;;;;;1.58;1.40;;;;;;;27.60;43.85;99118.97;5089828;28;20209;-64
2022/09/09 06:53:45;;;;;;;2.13;1.55;;;;;;;27.86;44.80;99117.06;5090566;28;20210;-58
2022/09/09 06:56:30;;;;;;;1.30;1.20;;;;;;;28.15;45.56;99121.50;5089743;28;20261;-65
2022/09/09 06:59:00;;;;;;;1.90;1.42;;;;;;;28.41;46.65;99114.25;5090024;28;20226;-64
2022/09/09 07:01:31;;;;;;;1.73;1.40;;;;;;;28.51;45.59;99124.25;5088894;28;20186;-58
2022/09/09 07:04:00;;;;;;;1.73;1.33;;;;;;;28.41;44.75;99114.25;5090734;28;20225;-63
2022/09/09 07:06:28;;;;;;;1.48;1.30;;;;;;;28.66;46.41;99114.91;5089820;28;20198;-64
2022/09/09 07:08:57;;;;;;;1.60;1.40;;;;;;;28.84;45.60;99107.91;5090041;28;20233;-58
2022/09/09 07:11:26;;;;;;;1.63;1.42;;;;;;;28.99;45.43;99110.88;5087993;28;20203;-64
2022/09/09 07:13:53;;;;;;;1.42;1.33;;;;;;;28.97;43.56;99122.66;5088204;28;20698;-65
2022/09/09 07:16:24;;;;;;;1.55;1.40;;;;;;;28.97;46.82;99139.25;5087349;28;20234;-65
2022/09/09 07:18:57;;;;;;;1.50;1.40;;;;;;;29.28;44.53;99130.22;5086421;28;20646;-58
2022/09/09 07:21:26;;;;;;;1.48;1.35;;;;;;;29.16;44.15;99123.38;5087906;28;20198;-65
2022/09/09 07:23:53;;;;;;;1.60;1.50;;;;;;;28.82;42.58;99123.13;5088532;28;20683;-66
2022/09/09 07:26:21;;;;;;;1.60;1.50;;;;;;;28.92;44.23;99126.00;5087511;28;20556;-65
2022/09/09 07:28:49;;;;;;;1.70;1.60;;;;;;;29.04;42.80;99118.94;5089468;28;20304;-65
2022/09/09 07:31:17;;;;;;;4.72;1.73;;;;;;;29.42;46.21;99125.50;5089623;28;20206;-64
2022/09/09 07:33:45;;;;;;;1.52;1.42;;;;;;;29.48;44.56;99126.41;5090000;28;20226;-65
2022/09/09 07:36:18;;;;;;;2.53;1.70;;;;;;;29.43;42.61;99134.19;5089107;28;20230;-57
2022/09/09 07:38:47;;;;;;;2.20;1.30;;;;;;;29.36;44.85;99126.44;5088855;28;20214;-57
2022/09/09 07:41:17;;;;;;;1.50;1.40;;;;;;;29.62;42.59;99140.13;5088877;28;20274;-65
2022/09/09 07:43:45;;;;;;;1.90;1.40;;;;;;;29.86;41.69;99139.03;5088508;28;20210;-65
2022/09/09 07:46:13;;;;;;;1.70;1.50;;;;;;;30.10;41.51;99141.56;5085709;28;20206;-58
2022/09/09 07:48:44;;;;;;;1.95;1.50;;;;;;;30.35;43.50;99139.38;5087807;28;20249;-65
2022/09/09 07:51:13;;;;;;;2.20;1.40;;;;;;;30.54;40.68;99149.69;5085152;28;20209;-65
2022/09/09 07:53:41;;;;;;;1.90;1.42;;;;;;;30.63;43.06;99140.34;5085599;28;20214;-65
2022/09/09 07:56:10;;;;;;;1.95;1.50;;;;;;;30.90;40.02;99140.53;5085076;28;20346;-58
2022/09/09 07:58:37;;;;;;;2.22;1.48;;;;;;;31.08;42.58;99131.53;5087585;28;20599;-65
2022/09/09 08:01:09;;;;;;;1.92;1.58;;;;;;;31.37;41.07;99123.47;5087800;28;20218;-58
2022/09/09 08:03:36;;;;;;;2.00;1.70;;;;;;;31.54;39.34;99132.13;5088169;28;21024;-58
2022/09/09 08:06:04;;;;;;;2.28;1.75;;;;;;;31.15;37.70;99126.84;5085280;28;20591;-65
2022/09/09 08:08:31;;;;;;;1.45;1.33;;;;;;;31.24;40.36;99130.69;5087743;28;20220;-65
2022/09/09 08:11:08;;;;;;;2.50;1.67;;;;;;;31.57;38.69;99124.50;5084427;28;20202;-66
2022/09/09 08:13:36;;;;;;;1.80;1.60;;;;;;;31.77;38.39;99134.50;5086896;28;20246;-66
2022/09/09 08:16:08;;;;;;;1.60;1.42;;;;;;;32.03;39.23;99129.50;5084054;28;20234;-58
2022/09/09 08:18:36;;;;;;;1.75;1.40;;;;;;;31.76;37.18;99122.31;5086752;28;20233;-61
2022/09/09 08:21:08;;;;;;;1.85;1.58;;;;;;;31.90;39.31;99121.94;5087277;28;20664;-57
2022/09/09 08:23:35;;;;;;;1.60;1.42;;;;;;;31.85;38.05;99120.03;5086583;28;20214;-65
2022/09/09 08:26:09;;;;;;;2.95;1.70;;;;;;;31.82;37.48;99119.72;5086737;28;20214;-65
2022/09/09 08:28:35;;;;;;;2.15;1.77;;;;;;;31.47;36.30;99128.88;5087593;28;20595;-58
2022/09/09 08:31:11;;;;;;;1.65;1.45;;;;;;;31.50;39.00;99117.78;5085075;28;20635;-66
2022/09/09 08:33:39;;;;;;;1.70;1.60;;;;;;;31.78;39.91;99114.16;5087233;28;20706;-65
2022/09/09 08:36:08;;;;;;;1.40;1.30;;;;;;;31.96;39.69;99107.72;5084752;28;20226;-66
2022/09/09 08:38:35;;;;;;;1.45;1.30;;;;;;;31.42;37.26;99097.13;5086935;28;20206;-66
2022/09/09 08:41:26;;;;;;;2.15;1.42;;;;;;;31.76;37.59;99093.22;5084472;28;20217;-57
2022/09/09 08:44:03;;;;;;;1.88;1.67;;;;;;;31.61;37.95;99098.38;5086840;28;20218;-65
2022/09/09 08:46:39;;;;;;;1.50;1.40;;;;;;;31.65;39.47;99096.84;5084786;28;20251;-64
2022/09/09 08:49:20;;;;;;;1.50;1.40;;;;;;;31.89;39.22;99104.47;5085812;28;20254;-57
2022/09/09 08:51:49;;;;;;;2.50;1.52;;;;;;;32.21;37.78;99099.22;5085711;28;20202;-62
2022/09/09 08:54:17;;;;;;;1.80;1.52;;;;;;;31.97;38.76;99111.97;5087114;28;20253;-59
2022/09/09 08:56:45;;;;;;;1.67;1.50;;;;;;;32.07;35.48;99112.06;5086430;28;20237;-65
2022/09/09 08:59:18;;;;;;;1.67;1.45;;;;;;;32.22;40.19;99104.25;5087485;28;20214;-59
2022/09/09 09:02:04;;;;;;;2.25;1.70;;;;;;;32.41;37.21;99106.53;5085425;28;20201;-58
2022/09/09 09:04:43;;;;;;;1.58;1.48;;;;;;;32.55;35.46;99106.91;5085685;28;20218;-66
2022/09/09 09:07:22;;;;;;;1.63;1.50;;;;;;;32.82;34.16;99112.94;5083453;28;20206;-58
2022/09/09 09:09:59;;;;;;;1.60;1.50;;;;;;;33.08;40.97;99103.28;5086292;28;20210;-66
2022/09/09 09:12:32;;;;;;;2.13;1.60;;;;;;;33.26;35.34;99102.03;5085090;28;20202;-58
2022/09/09 09:15:00;;;;;;;2.17;1.60;;;;;;;33.17;34.37;99108.91;5087229;28;20213;-58
2022/09/09 09:17:32;;;;;;;2.10;1.60;;;;;;;33.30;37.63;99104.97;5086306;28;20237;-58
2022/09/09 09:20:00;;;;;;;1.92;1.52;;;;;;;33.25;36.61;99099.63;5084520;28;20207;-58
2022/09/09 09:22:33;;;;;;;1.35;1.25;;;;;;;33.17;35.70;99102.81;5084366;28;20557;-66
2022/09/09 09:25:10;;;;;;;2.03;1.80;;;;;;;32.97;35.15;99091.03;5090680;28;20247;-66
2022/09/09 09:27:45;;;;;;;1.77;1.55;;;;;;;33.42;36.24;99094.94;5087471;28;20423;-66
2022/09/09 09:30:17;;;;;;;1.60;1.40;;;;;;;33.34;34.01;99098.09;5090700;28;20197;-58
2022/09/09 09:32:55;;;;;;;2.03;1.50;;;;;;;33.65;36.37;99092.91;5089464;28;20601;-66
2022/09/09 09:35:23;;;;;;;1.73;1.50;;;;;;;33.79;36.77;99096.63;5090447;28;20601;-59
2022/09/09 09:37:50;;;;;;;2.40;1.85;;;;;;;33.93;34.58;99089.75;5089445;28;20329;-66
2022/09/09 09:40:20;;;;;;;2.00;1.65;;;;;;;33.89;35.93;99099.31;5090394;28;20208;-58
2022/09/09 09:42:54;;;;;;;2.20;1.80;;;;;;;34.08;36.42;99085.56;5088261;28;20226;-58
2022/09/09 09:45:31;;;;;;;2.15;1.67;;;;;;;33.98;35.13;99084.47;5090537;28;20189;-58
2022/09/09 09:48:03;;;;;;;1.90;1.63;;;;;;;33.38;34.08;99072.66;5089606;28;20213;-58
2022/09/09 09:50:31;;;;;;;1.98;1.60;;;;;;;33.35;35.51;99078.47;5088508;28;20346;-66
2022/09/09 09:53:01;;;;;;;1.60;1.50;;;;;;;33.56;34.70;99082.81;5089830;28;20346;-61
2022/09/09 09:55:31;;;;;;;1.95;1.52;;;;;;;33.39;33.80;99082.19;5089988;28;20211;-65
2022/09/09 09:58:04;;;;;;;1.70;1.48;;;;;;;33.79;39.12;99078.06;5089443;28;20318;-57
2022/09/09 10:00:31;;;;;;;1.77;1.50;;;;;;;34.12;35.55;99079.44;5088618;28;20198;-57
2022/09/09 10:03:01;;;;;;;1.77;1.67;;;;;;;34.16;36.11;99080.50;5089089;28;20583;-58
2022/09/09 10:05:29;;;;;;;2.63;1.67;;;;;;;34.20;35.38;99083.44;5087512;28;20204;-65
2022/09/09 10:08:05;;;;;;;1.60;1.45;;;;;;;34.08;35.73;99080.25;5090119;28;20588;-64
2022/09/09 10:10:52;;;;;;;2.22;1.58;;;;;;;33.84;33.93;99085.25;5087884;28;20202;-57
2022/09/09 10:13:27;;;;;;;1.65;1.55;;;;;;;33.75;35.34;99082.31;5089556;28;20209;-65
2022/09/09 10:16:07;;;;;;;1.85;1.65;;;;;;;33.59;35.84;99074.31;5088498;28;20208;-57
2022/09/09 10:18:47;;;;;;;2.20;1.70;;;;;;;33.75;39.13;99077.81;5090769;28;20224;-57
2022/09/09 10:21:29;;;;;;;2.00;1.80;;;;;;;33.88;36.25;99075.69;5091022;28;20197;-58
2022/09/09 10:24:13;;;;;;;1.77;1.50;;;;;;;34.23;36.31;99066.97;5091020;28;20728;-65
2022/09/09 10:26:49;;;;;;;1.83;1.60;;;;;;;34.31;35.80;99085.03;5090642;28;20194;-65
2022/09/09 10:29:30;;;;;;;3.78;1.67;;;;;;;34.26;33.77;99079.72;5091227;28;20693;-58
2022/09/09 10:32:11;;;;;;;2.03;1.77;;;;;;;34.55;33.87;99079.16;5090072;28;20309;-65
2022/09/09 10:34:56;;;;;;;1.77;1.55;;;;;;;34.43;33.68;99082.88;5090721;28;20233;-65
2022/09/09 10:37:38;;;;;;;2.35;1.92;;;;;;;34.75;34.22;99081.00;5090567;28;20238;-58
2022/09/09 10:40:25;;;;;;;2.42;1.67;;;;;;;35.07;35.88;99085.97;5089939;28;20656;-65
2022/09/09 10:42:58;;;;;;;2.08;1.67;;;;;;;35.09;32.70;99083.84;5090509;28;20268;-63
2022/09/09 10:45:34;;;;;;;2.30;1.77;;;;;;;35.20;32.92;99073.94;5090508;28;20202;-58
2022/09/09 10:48:31;;;;;;;2.20;1.63;;;;;;;35.10;33.10;99072.91;5090342;28;20249;-58
2022/09/09 10:51:11;;;;;;;2.25;1.90;;;;;;;35.04;36.69;99075.84;5090351;28;20214;-62
2022/09/09 10:53:49;;;;;;;1.95;1.70;;;;;;;34.21;34.73;99079.69;5090812;28;20283;-66
2022/09/09 10:56:19;;;;;;;2.22;1.85;;;;;;;34.14;35.37;99079.19;5089668;28;20202;-66
2022/09/09 10:58:51;;;;;;;3.20;1.85;;;;;;;33.92;36.72;99071.44;5070397;28;20219;-58
2022/09/09 11:01:23;;;;;;;3.47;1.80;;;;;;;33.49;36.37;99068.97;5075295;28;20209;-65
2022/09/09 11:03:57;;;;;;;2.40;1.95;;;;;;;33.37;37.25;99068.44;5090664;28;20218;-65
2022/09/09 11:06:28;;;;;;;2.35;1.75;;;;;;;33.10;37.21;99071.22;5090344;28;20598;-58
2022/09/09 11:08:58;;;;;;;1.67;1.58;;;;;;;32.72;40.01;99067.03;5089839;28;20225;-58
2022/09/09 11:11:30;;;;;;;2.63;2.03;;;;;;;32.49;38.29;99070.88;5089959;28;20232;-58
2022/09/09 11:14:03;;;;;;;2.08;1.88;;;;;;;32.45;38.96;99075.88;5090154;28;20218;-65
2022/09/09 11:16:38;;;;;;;2.10;1.90;;;;;;;32.45;39.40;99081.19;5089826;28;20202;-65
2022/09/09 11:19:16;;;;;;;2.38;1.75;;;;;;;32.09;39.56;99083.53;5090170;28;20224;-65
2022/09/09 11:21:47;;;;;;;1.95;1.70;;;;;;;31.73;39.83;99075.22;5089790;28;20426;-58
2022/09/09 11:24:20;;;;;;;2.95;1.95;;;;;;;31.65;40.75;99072.22;5089554;28;20218;-58
2022/09/09 11:26:52;;;;;;;2.15;1.95;;;;;;;31.85;41.77;99066.34;5078873;28;20275;-58
2022/09/09 11:29:41;;;;;;;2.40;2.10;;;;;;;31.61;41.82;99069.28;5089893;28;20741;-63
2022/09/09 11:32:28;;;;;;;2.00;1.70;;;;;;;31.55;40.79;99070.28;5034961;28;20210;-58
2022/09/09 11:35:04;;;;;;;2.72;2.10;;;;;;;31.45;42.28;99072.84;5089758;28;20209;-58
2022/09/09 11:37:51;;;;;;;1.90;1.58;;;;;;;31.11;40.65;99065.00;5073920;28;20283;-65
2022/09/09 11:40:23;;;;;;;2.30;1.85;;;;;;;31.01;40.66;99067.50;5069122;28;20202;-65
2022/09/09 11:43:04;;;;;;;2.47;2.00;;;;;;;31.09;41.57;99069.72;5069121;28;20227;-58
2022/09/09 11:45:31;;;;;;;2.20;1.77;;;;;;;31.13;42.84;99076.13;5068890;28;20194;-65
2022/09/09 11:48:01;;;;;;;2.00;1.63;;;;;;;31.29;42.33;99075.25;5068306;28;20223;-65
2022/09/09 11:50:34;;;;;;;2.30;1.98;;;;;;;31.07;41.03;99066.56;5069647;28;20199;-65
2022/09/09 11:53:07;;;;;;;2.30;1.80;;;;;;;31.04;42.26;99073.13;5069144;28;20255;-64